Time;durP1;ratioP1;P1;durP2;ratioP2;P2;SDS_P1;SDS_P2;PMS_P1;PMS_P2;Temp;Humidity;BMP_temperature;BMP_pressure;BME280_temperature;BME280_humidity;BME280_pressure;Samples;Min_cycle;Max_cycle;Signal;HPM_P1;HPM_P2
2023/01/01 06:01:15;;;;;;;4.53;2.40;;;13.10;99.90;;;;;;5874359;23;20035;31
2023/01/01 06:03:42;;;;;;;4.72;2.55;;;13.20;99.90;;;;;;4904827;29;20059;-72
2023/01/01 06:06:13;;;;;;;5.68;2.45;;;13.20;99.90;;;;;;4896844;29;20232;-71
2023/01/01 06:08:40;;;;;;;5.53;2.55;;;13.30;99.90;;;;;;4887610;29;20120;-72
2023/01/01 06:11:08;;;;;;;7.47;2.78;;;13.10;99.90;;;;;;4901556;29;20039;-73
2023/01/01 06:13:33;;;;;;;4.38;2.55;;;13.10;99.90;;;;;;4906545;29;20087;-74
2023/01/01 06:16:01;;;;;;;5.60;2.42;;;13.00;99.90;;;;;;4906610;29;20032;-73
2023/01/01 06:18:30;;;;;;;4.18;2.40;;;13.00;99.90;;;;;;4901287;29;20025;-72
2023/01/01 06:21:04;;;;;;;4.53;2.15;;;13.00;99.90;;;;;;4886881;29;20084;-74
2023/01/01 06:23:29;;;;;;;4.47;2.35;;;13.00;99.90;;;;;;4887633;29;20041;-72
2023/01/01 06:25:55;;;;;;;5.95;2.50;;;12.90;99.90;;;;;;4887713;29;20043;-74
2023/01/01 06:28:21;;;;;;;5.18;2.47;;;12.90;99.90;;;;;;4887390;29;20410;-72
2023/01/01 06:30:46;;;;;;;6.05;2.58;;;12.90;99.90;;;;;;4887875;29;20045;-72
2023/01/01 06:33:12;;;;;;;4.93;2.20;;;12.70;99.90;;;;;;4887195;29;20041;-73
2023/01/01 06:35:38;;;;;;;5.13;2.40;;;12.50;99.90;;;;;;4893479;29;20029;-73
2023/01/01 06:38:03;;;;;;;5.70;2.85;;;12.30;99.90;;;;;;4904946;29;20037;-72
2023/01/01 06:40:29;;;;;;;6.18;3.00;;;12.20;99.90;;;;;;4906637;29;20331;-74
2023/01/01 06:42:55;;;;;;;6.50;2.95;;;12.00;99.90;;;;;;4906473;29;20025;-72
2023/01/01 06:45:20;;;;;;;5.75;2.63;;;11.90;99.90;;;;;;4905727;29;20044;-73
2023/01/01 06:47:46;;;;;;;6.15;2.65;;;11.90;99.90;;;;;;4906195;29;20051;-73
2023/01/01 06:50:12;;;;;;;5.45;3.38;;;11.80;99.90;;;;;;4905420;29;20084;-73
2023/01/01 06:52:38;;;;;;;5.78;3.20;;;11.60;99.90;;;;;;4906140;29;20024;-73
2023/01/01 06:55:04;;;;;;;5.97;3.08;;;11.60;99.90;;;;;;4906067;29;20041;-74
2023/01/01 06:57:33;;;;;;;8.57;3.70;;;11.40;99.90;;;;;;4906154;29;20056;-73
2023/01/01 06:59:59;;;;;;;5.00;2.70;;;11.30;99.90;;;;;;4905853;29;20330;-74
2023/01/01 07:02:24;;;;;;;6.47;2.97;;;11.20;99.90;;;;;;4905415;29;20108;-74
2023/01/01 07:04:50;;;;;;;5.80;3.00;;;11.00;99.90;;;;;;4905070;29;20119;-72
2023/01/01 07:07:16;;;;;;;5.75;2.78;;;11.00;99.90;;;;;;4905891;29;20059;-74
2023/01/01 07:09:41;;;;;;;4.00;2.20;;;11.00;99.90;;;;;;4906033;29;20033;-72
2023/01/01 07:12:07;;;;;;;6.72;2.50;;;11.10;99.90;;;;;;4905761;29;20028;-73
2023/01/01 07:14:33;;;;;;;4.80;1.98;;;11.20;99.90;;;;;;4906005;29;20069;-74
2023/01/01 07:16:59;;;;;;;4.38;2.20;;;11.70;99.90;;;;;;4905997;29;20033;-73
2023/01/01 07:19:24;;;;;;;5.13;2.00;;;12.00;99.90;;;;;;4905841;29;20219;-72
2023/01/01 07:21:54;;;;;;;7.10;1.92;;;12.20;99.90;;;;;;4909203;29;20229;-73
2023/01/01 07:24:20;;;;;;;4.35;2.00;;;12.40;99.90;;;;;;4909119;29;20108;-73
2023/01/01 07:26:48;;;;;;;6.00;1.83;;;12.40;99.90;;;;;;4908210;29;20029;-74
2023/01/01 07:29:14;;;;;;;3.83;2.03;;;12.60;99.90;;;;;;4907828;29;20063;-75
2023/01/01 07:31:42;;;;;;;3.47;1.90;;;12.60;99.90;;;;;;4909546;29;20067;-73
2023/01/01 07:34:16;;;;;;;5.93;2.10;;;12.80;99.90;;;;;;4908946;29;20141;-73
2023/01/01 07:36:42;;;;;;;5.15;1.77;;;13.00;99.90;;;;;;4909400;29;20020;-74
2023/01/01 07:39:08;;;;;;;3.30;1.75;;;13.10;99.90;;;;;;4908882;29;20064;-71
2023/01/01 07:41:33;;;;;;;3.47;1.40;;;13.20;99.90;;;;;;4909037;29;20206;-73
2023/01/01 07:43:59;;;;;;;3.78;1.70;;;13.30;99.90;;;;;;4908756;29;20025;-72
2023/01/01 07:46:25;;;;;;;6.03;2.65;;;13.30;99.90;;;;;;4908563;29;20060;-73
2023/01/01 07:48:51;;;;;;;4.45;2.10;;;13.10;99.90;;;;;;4907904;29;20033;-72
2023/01/01 07:51:17;;;;;;;4.10;2.40;;;12.90;99.90;;;;;;4908634;29;20036;-73
2023/01/01 07:53:42;;;;;;;9.63;2.60;;;12.70;99.90;;;;;;4908744;29;20246;-73
2023/01/01 07:56:08;;;;;;;4.72;2.50;;;12.50;99.90;;;;;;4908309;29;20322;-73
2023/01/01 07:58:37;;;;;;;5.45;2.60;;;12.30;99.90;;;;;;4908816;29;20024;-75
2023/01/01 08:01:03;;;;;;;5.93;3.05;;;12.10;99.90;;;;;;4909058;29;20108;-72
2023/01/01 08:03:29;;;;;;;7.65;3.30;;;12.00;99.90;;;;;;4907853;29;20060;-74
2023/01/01 08:05:54;;;;;;;5.97;3.35;;;11.90;99.90;;;;;;4908760;29;20067;-74
2023/01/01 08:08:20;;;;;;;7.03;3.65;;;11.80;99.90;;;;;;4908793;29;20051;-78
2023/01/01 08:10:46;;;;;;;5.28;3.28;;;11.60;99.90;;;;;;4908865;29;20033;-76
2023/01/01 08:13:11;;;;;;;9.32;3.75;;;11.50;99.90;;;;;;4907329;29;20055;-79
2023/01/01 08:15:37;;;;;;;7.13;4.50;;;11.50;99.90;;;;;;4908593;29;20036;-77
2023/01/01 08:18:05;;;;;;;9.55;4.60;;;11.40;99.90;;;;;;4907585;29;20314;-77
2023/01/01 08:20:33;;;;;;;7.38;4.18;;;11.40;99.90;;;;;;4908479;29;20066;-78
2023/01/01 08:23:01;;;;;;;8.35;4.93;;;11.30;99.90;;;;;;4907268;29;20017;-76
2023/01/01 08:25:27;;;;;;;7.57;4.60;;;11.30;99.90;;;;;;4906850;29;20204;-77
2023/01/01 08:27:53;;;;;;;9.93;4.75;;;11.20;99.90;;;;;;4908498;29;20035;-78
2023/01/01 08:30:19;;;;;;;7.60;4.82;;;11.20;99.90;;;;;;4907258;29;20096;-78
2023/01/01 08:32:45;;;;;;;8.15;4.40;;;11.20;99.90;;;;;;4907558;29;20017;-81
2023/01/01 08:35:14;;;;;;;10.75;4.70;;;11.30;99.90;;;;;;4908027;29;20088;-81
2023/01/01 08:37:40;;;;;;;9.02;4.15;;;11.40;99.90;;;;;;4907282;29;20032;-78
2023/01/01 08:40:06;;;;;;;8.48;4.63;;;11.30;99.90;;;;;;4907674;29;20091;-80
2023/01/01 08:42:32;;;;;;;8.70;4.78;;;11.40;99.90;;;;;;4907686;29;20198;-76
2023/01/01 08:44:58;;;;;;;7.57;4.45;;;11.40;99.90;;;;;;4907189;29;20033;-77
2023/01/01 08:47:25;;;;;;;7.80;4.07;;;11.40;99.90;;;;;;4907698;29;20013;-77
2023/01/01 08:49:54;;;;;;;6.20;3.93;;;11.50;99.90;;;;;;4906725;29;20071;-77
2023/01/01 08:52:20;;;;;;;;;;;11.60;99.90;;;;;;4908185;29;20377;-76
2023/01/01 08:54:51;;;;;;;8.18;4.68;;;11.70;99.90;;;;;;4908127;29;19942;-78
2023/01/01 08:57:21;;;;;;;8.23;4.15;;;11.80;99.90;;;;;;4888671;29;20037;-79
2023/01/01 08:59:47;;;;;;;;;;;11.90;99.90;;;;;;4888506;29;20219;-79
2023/01/01 09:02:16;;;;;;;8.02;4.47;;;12.00;99.90;;;;;;4903587;29;19982;-77
2023/01/01 09:04:44;;;;;;;11.00;6.78;;;12.00;99.90;;;;;;4907282;29;20283;-78
2023/01/01 09:07:22;;;;;;;16.10;9.13;;;12.10;99.90;;;;;;4907412;29;20099;-78
2023/01/01 09:09:48;;;;;;;16.07;8.27;;;12.10;99.90;;;;;;4907753;29;20043;-77
2023/01/01 09:12:17;;;;;;;15.45;9.43;;;12.10;99.90;;;;;;4905297;29;20465;-78
2023/01/01 09:14:47;;;;;;;15.35;10.40;;;12.20;99.90;;;;;;4906150;29;20035;-78
2023/01/01 09:17:14;;;;;;;15.20;9.57;;;12.20;99.90;;;;;;4890379;29;20191;-78
2023/01/01 09:19:39;;;;;;;16.50;10.02;;;12.30;99.90;;;;;;4906940;29;20063;-77
2023/01/01 09:22:09;;;;;;;15.45;8.48;;;12.30;99.90;;;;;;4905990;29;20032;-77
2023/01/01 09:24:35;;;;;;;14.35;8.35;;;12.30;99.90;;;;;;4905475;29;20032;-79
2023/01/01 09:27:01;;;;;;;14.00;8.63;;;12.40;99.90;;;;;;4907533;29;20039;-77
2023/01/01 09:29:26;;;;;;;13.93;8.93;;;12.50;99.90;;;;;;4906806;29;20037;-76
2023/01/01 09:31:52;;;;;;;14.43;8.65;;;12.50;99.90;;;;;;4906044;29;20231;-78
2023/01/01 09:34:18;;;;;;;16.70;9.70;;;12.60;99.90;;;;;;4905730;29;20032;-78
2023/01/01 09:36:45;;;;;;;14.18;8.80;;;12.70;99.90;;;;;;4907364;29;20309;-78
2023/01/01 09:39:14;;;;;;;17.13;9.88;;;12.80;99.90;;;;;;4905936;29;20038;-76
2023/01/01 09:41:51;;;;;;;15.85;10.07;;;12.80;99.90;;;;;;4905880;29;20244;-77
2023/01/01 09:44:28;;;;;;;18.03;11.13;;;12.90;99.90;;;;;;4889714;29;20032;-76
2023/01/01 09:46:59;;;;;;;20.20;12.55;;;12.90;99.90;;;;;;4887258;29;20057;-77
2023/01/01 09:49:29;;;;;;;18.55;12.20;;;13.00;99.90;;;;;;4888297;29;20044;-78
2023/01/01 09:52:00;;;;;;;18.88;12.20;;;13.00;99.90;;;;;;4904417;29;20059;-76
2023/01/01 09:54:38;;;;;;;19.08;12.20;;;13.10;99.90;;;;;;4905158;29;20032;-77
2023/01/01 09:57:10;;;;;;;19.30;12.00;;;13.10;99.90;;;;;;4921367;29;20032;-76
2023/01/01 09:59:36;;;;;;;17.00;11.65;;;13.20;99.90;;;;;;4905480;29;20032;-76
2023/01/01 10:02:35;;;;;;;17.35;11.23;;;13.20;99.90;;;;;;4903108;29;20055;-79
2023/01/01 10:05:19;;;;;;;;;;;13.40;99.90;;;;;;4847621;29;20041;-76
2023/01/01 10:07:53;;;;;;;20.38;13.32;;;13.50;99.90;;;;;;4849084;29;19908;-79
2023/01/01 10:10:39;;;;;;;22.67;14.00;;;13.70;99.90;;;;;;4832471;29;20038;-81
2023/01/01 10:13:21;;;;;;;20.25;13.82;;;13.90;99.90;;;;;;4849935;29;20133;-77
2023/01/01 10:15:56;;;;;;;16.58;12.32;;;14.10;99.90;;;;;;4849419;29;20038;-78
2023/01/01 10:18:26;;;;;;;16.95;11.65;;;14.30;99.90;;;;;;4848683;29;20037;-79
2023/01/01 10:21:13;;;;;;;20.25;11.70;;;14.40;99.90;;;;;;4835077;29;20026;-79
2023/01/01 10:23:49;;;;;;;14.73;9.98;;;14.60;99.90;;;;;;4840948;29;20090;-80
2023/01/01 10:26:19;;;;;;;16.02;10.20;;;14.80;99.90;;;;;;4838117;29;20113;-78
2023/01/01 10:29:09;;;;;;;15.20;10.43;;;14.80;99.90;;;;;;4848922;29;20064;-77
2023/01/01 10:31:40;;;;;;;14.55;9.55;;;15.00;99.90;;;;;;4833288;29;20311;-76
2023/01/01 10:34:21;;;;;;;15.10;9.10;;;15.10;99.90;;;;;;4849056;29;20042;-79
2023/01/01 10:36:50;;;;;;;13.73;9.38;;;15.20;99.90;;;;;;4846382;29;21218;-76
2023/01/01 10:39:23;;;;;;;7.35;2.78;;;15.30;99.90;;;;;;4849450;29;20274;-80
2023/01/01 10:41:56;;;;;;;6.72;3.78;;;15.60;99.90;;;;;;4862464;29;20045;-81
2023/01/01 10:44:42;;;;;;;8.65;4.40;;;15.90;99.90;;;;;;4906733;29;20350;-80
2023/01/01 10:47:31;;;;;;;4.32;1.70;;;16.30;99.30;;;;;;4905334;29;20059;-81
2023/01/01 10:53:04;;;;;;;5.55;2.05;;;17.00;97.10;;;;;;4907315;29;20028;-81
2023/01/01 10:55:30;;;;;;;4.20;1.65;;;17.30;96.30;;;;;;4906793;29;20113;-79
2023/01/01 10:57:56;;;;;;;4.95;1.63;;;17.50;95.60;;;;;;4902604;29;20359;-79
2023/01/01 11:00:27;;;;;;;5.65;2.13;;;17.50;95.20;;;;;;4907597;29;20043;-79
2023/01/01 11:03:20;;;;;;;3.53;1.90;;;17.70;95.10;;;;;;4909510;29;20117;-79
2023/01/01 11:06:26;;;;;;;4.47;1.70;;;18.00;94.50;;;;;;4903062;29;20361;-78
2023/01/01 11:08:57;;;;;;;5.13;1.80;;;18.10;94.00;;;;;;4900374;29;20036;-79
2023/01/01 11:11:28;;;;;;;5.93;1.50;;;18.20;93.50;;;;;;4909633;29;20094;-79
2023/01/01 11:13:57;;;;;;;5.05;1.67;;;18.40;92.90;;;;;;4924393;29;20024;-80
2023/01/01 11:16:23;;;;;;;5.13;1.60;;;18.50;92.80;;;;;;4908019;29;20059;-79
2023/01/01 11:18:59;;;;;;;6.75;2.45;;;18.70;92.60;;;;;;4908172;29;20211;-78
2023/01/01 11:21:24;;;;;;;6.07;2.08;;;19.00;92.20;;;;;;4909258;29;20088;-79
2023/01/01 11:24:16;;;;;;;4.32;1.50;;;19.60;91.40;;;;;;4908602;29;20118;-78
2023/01/01 11:26:42;;;;;;;7.53;2.53;;;20.00;90.70;;;;;;4908659;29;20032;-78
2023/01/01 11:29:14;;;;;;;4.95;1.73;;;20.40;90.00;;;;;;4909859;29;20025;-79
2023/01/01 11:31:43;;;;;;;3.50;1.50;;;21.00;88.40;;;;;;4909244;29;20040;-79
2023/01/01 11:34:29;;;;;;;5.22;1.60;;;21.30;86.80;;;;;;4906674;29;20036;-78
2023/01/01 11:37:13;;;;;;;5.15;1.85;;;21.30;86.20;;;;;;4907526;29;20026;-78
2023/01/01 11:39:45;;;;;;;4.53;1.65;;;21.50;85.40;;;;;;4908984;29;20044;-78
2023/01/01 11:42:26;;;;;;;4.65;1.88;;;22.30;83.60;;;;;;4909733;29;20055;-78
2023/01/01 11:44:59;;;;;;;5.15;1.73;;;22.10;83.40;;;;;;4909132;29;20095;-78
2023/01/01 11:47:31;;;;;;;5.32;1.85;;;22.60;82.50;;;;;;4909043;29;20027;-77
2023/01/01 11:50:18;;;;;;;5.00;1.42;;;22.70;81.60;;;;;;4908411;29;20111;-77
2023/01/01 11:52:49;;;;;;;3.47;1.63;;;22.80;81.10;;;;;;4908767;29;20055;-79
2023/01/01 11:55:24;;;;;;;4.45;1.52;;;22.50;80.80;;;;;;4907766;29;20032;-78
2023/01/01 11:58:02;;;;;;;5.32;1.70;;;22.70;80.40;;;;;;4909098;29;20088;-80
2023/01/01 12:00:34;;;;;;;5.15;1.83;;;22.40;79.00;;;;;;4908585;29;20032;-77
2023/01/01 12:03:10;;;;;;;3.83;1.40;;;22.40;79.90;;;;;;4907890;29;20083;-78
2023/01/01 12:05:46;;;;;;;4.95;1.55;;;22.40;79.90;;;;;;4908233;29;20045;-80
2023/01/01 12:08:19;;;;;;;4.88;2.17;;;22.50;80.40;;;;;;4907893;29;20055;-79
2023/01/01 12:10:51;;;;;;;4.65;1.80;;;22.90;79.10;;;;;;4907515;29;20111;-78
2023/01/01 12:13:24;;;;;;;3.40;1.60;;;23.50;77.60;;;;;;4907806;29;20024;-79
2023/01/01 12:16:12;;;;;;;4.05;1.38;;;23.80;77.20;;;;;;4907420;29;20036;-79
2023/01/01 12:18:46;;;;;;;5.90;1.60;;;24.20;75.30;;;;;;4907269;29;20072;-78
2023/01/01 12:21:16;;;;;;;3.72;1.35;;;24.40;74.50;;;;;;4908740;29;20036;-78
2023/01/01 12:23:43;;;;;;;4.00;1.35;;;24.30;73.30;;;;;;4908044;29;20048;-77
2023/01/01 12:26:32;;;;;;;3.47;1.60;;;24.40;72.50;;;;;;4908663;29;20063;-79
2023/01/01 12:29:09;;;;;;;5.78;1.45;;;24.50;73.40;;;;;;4907446;29;20028;-81
2023/01/01 12:32:16;;;;;;;5.47;1.48;;;24.60;71.20;;;;;;4907989;29;20029;-80
2023/01/01 12:34:51;;;;;;;4.55;1.40;;;24.40;70.80;;;;;;4908106;29;20083;-82
2023/01/01 12:37:51;;;;;;;4.15;1.30;;;24.30;73.10;;;;;;4909153;29;20047;-78
2023/01/01 12:40:37;;;;;;;6.53;1.35;;;24.00;71.20;;;;;;4909345;29;20095;-81
2023/01/01 12:43:26;;;;;;;4.38;1.60;;;23.80;71.10;;;;;;4907850;29;20025;-82
2023/01/01 12:46:08;;;;;;;3.67;1.20;;;23.90;71.00;;;;;;4909794;29;20025;-79
2023/01/01 12:49:11;;;;;;;5.82;1.48;;;24.10;72.00;;;;;;4907595;29;20032;-79
2023/01/01 12:51:49;;;;;;;4.22;1.38;;;23.50;71.50;;;;;;4906424;29;20263;-80
2023/01/01 12:54:56;;;;;;;4.78;1.20;;;23.60;71.50;;;;;;4907561;29;20020;-79
2023/01/01 12:58:06;;;;;;;3.47;1.10;;;23.50;71.90;;;;;;4873565;29;20045;-80
2023/01/01 13:00:36;;;;;;;5.80;1.45;;;23.20;71.50;;;;;;4908057;29;20047;-78
2023/01/01 13:03:17;;;;;;;4.45;1.30;;;23.00;72.20;;;;;;4907792;29;20056;-79
2023/01/01 13:05:47;;;;;;;5.88;1.60;;;23.00;72.70;;;;;;4907452;29;20028;-80
2023/01/01 13:08:16;;;;;;;4.80;1.48;;;22.80;72.60;;;;;;4907773;29;20084;-79
2023/01/01 13:10:52;;;;;;;4.57;1.30;;;22.60;72.60;;;;;;4904464;29;20037;-78
2023/01/01 13:13:23;;;;;;;5.15;1.20;;;22.10;73.20;;;;;;4906865;29;20044;-79
2023/01/01 13:15:55;;;;;;;4.07;1.38;;;22.00;73.70;;;;;;4907542;29;20044;-77
2023/01/01 13:18:34;;;;;;;5.93;1.65;;;21.90;74.50;;;;;;4906906;29;20048;-78
2023/01/01 13:21:06;;;;;;;;;;;21.80;74.10;;;;;;4908537;29;20153;-80
2023/01/01 13:23:39;;;;;;;3.83;1.45;;;21.70;74.70;;;;;;4906195;29;20100;-79
2023/01/01 13:26:17;;;;;;;5.65;1.70;;;21.60;74.80;;;;;;4906761;29;20107;-78
2023/01/01 13:28:58;;;;;;;4.38;1.42;;;21.60;75.40;;;;;;4907404;29;20041;-79
2023/01/01 13:32:01;;;;;;;5.70;1.55;;;21.30;75.50;;;;;;4907567;29;20135;-80
2023/01/01 13:34:48;;;;;;;5.05;1.83;;;21.20;76.70;;;;;;4896994;29;20045;-79
2023/01/01 13:37:28;;;;;;;5.45;1.52;;;21.20;76.40;;;;;;4906533;29;20043;-78
2023/01/01 13:40:12;;;;;;;4.03;1.40;;;21.30;75.50;;;;;;4907187;29;20039;-79
2023/01/01 13:42:39;;;;;;;4.28;1.67;;;21.50;75.10;;;;;;4906819;29;20052;-78
2023/01/01 13:45:25;;;;;;;6.38;1.60;;;21.50;75.10;;;;;;4906880;29;20040;-78
2023/01/01 13:48:11;;;;;;;7.60;2.00;;;21.60;75.50;;;;;;4905695;29;20036;-79
2023/01/01 13:50:55;;;;;;;4.22;1.30;;;21.90;75.50;;;;;;4906480;29;20080;-77
2023/01/01 13:53:48;;;;;;;4.25;1.70;;;21.90;75.00;;;;;;4902604;29;20112;-78
2023/01/01 13:56:25;;;;;;;3.92;1.40;;;21.70;75.40;;;;;;4895666;29;20032;-80
2023/01/01 13:59:03;;;;;;;6.78;1.60;;;21.60;75.40;;;;;;4906452;29;20051;-80
2023/01/01 14:01:48;;;;;;;6.65;1.83;;;21.50;75.40;;;;;;4906156;29;20092;-79
2023/01/01 14:04:28;;;;;;;5.82;2.10;;;21.50;76.50;;;;;;4906616;29;20028;-79
2023/01/01 14:06:56;;;;;;;8.35;2.30;;;21.50;76.60;;;;;;4890626;29;20036;-81
2023/01/01 14:09:23;;;;;;;6.32;2.20;;;21.40;77.00;;;;;;4907533;29;20024;-79
2023/01/01 14:11:48;;;;;;;5.30;2.40;;;21.30;77.70;;;;;;4908410;29;20317;-78
2023/01/01 14:14:23;;;;;;;6.00;2.40;;;21.10;78.50;;;;;;4906586;29;20211;-77
2023/01/01 14:16:54;;;;;;;7.18;2.50;;;21.10;78.50;;;;;;4907770;29;20137;-78
2023/01/01 14:19:21;;;;;;;6.55;3.03;;;21.20;79.10;;;;;;4906629;29;20031;-76
2023/01/01 14:21:47;;;;;;;6.97;3.28;;;21.30;79.00;;;;;;4906172;29;20251;-79
2023/01/01 14:24:17;;;;;;;5.53;2.72;;;21.20;79.00;;;;;;4907760;29;20199;-77
2023/01/01 14:26:43;;;;;;;4.68;2.47;;;21.00;79.20;;;;;;4906811;29;20107;-77
2023/01/01 14:29:14;;;;;;;9.18;3.22;;;20.90;81.30;;;;;;4908157;29;20210;-78
2023/01/01 14:31:43;;;;;;;7.68;3.08;;;21.00;80.20;;;;;;4910012;29;20043;-77
2023/01/01 14:34:29;;;;;;;8.30;3.03;;;20.90;81.00;;;;;;4910956;29;20032;-80
2023/01/01 14:36:57;;;;;;;7.78;2.97;;;20.90;80.90;;;;;;4911114;29;20033;-82
2023/01/01 14:39:33;;;;;;;6.55;2.95;;;20.90;81.00;;;;;;4910252;29;20055;-81
2023/01/01 14:42:03;;;;;;;7.55;3.25;;;20.70;81.00;;;;;;4911816;29;20048;-79
2023/01/01 14:44:39;;;;;;;6.15;2.67;;;20.50;81.70;;;;;;4910013;29;20048;-79
2023/01/01 14:47:24;;;;;;;6.32;2.78;;;20.40;84.70;;;;;;4911209;29;20040;-78
2023/01/01 14:49:51;;;;;;;7.03;3.08;;;20.20;84.10;;;;;;4905952;29;20033;-79
2023/01/01 14:52:26;;;;;;;9.48;3.80;;;20.20;83.30;;;;;;4915441;29;20338;-80
2023/01/01 14:54:55;;;;;;;9.30;3.53;;;20.10;83.10;;;;;;4893592;29;20021;-77
2023/01/01 14:57:33;;;;;;;9.18;3.58;;;19.90;83.40;;;;;;4908532;29;20036;-83
2023/01/01 14:59:59;;;;;;;9.00;2.65;;;19.60;84.50;;;;;;4913440;29;20202;-78
2023/01/01 15:02:25;;;;;;;5.78;2.47;;;19.30;84.50;;;;;;4909186;29;20222;-80
2023/01/01 15:04:51;;;;;;;7.28;2.75;;;19.00;85.50;;;;;;4892862;29;20047;-81
2023/01/01 15:07:30;;;;;;;8.05;3.40;;;18.80;85.80;;;;;;4893152;29;20059;-78
2023/01/01 15:10:02;;;;;;;6.03;2.70;;;18.50;89.40;;;;;;4909858;29;20048;-78
2023/01/01 15:12:36;;;;;;;7.47;2.53;;;18.40;88.30;;;;;;4910121;29;20040;-80
2023/01/01 15:15:02;;;;;;;7.68;2.65;;;18.20;90.00;;;;;;4908621;29;20032;-80
2023/01/01 15:17:44;;;;;;;6.60;3.03;;;18.00;88.10;;;;;;4908526;29;20306;-79
2023/01/01 15:20:22;;;;;;;6.32;3.30;;;17.80;88.70;;;;;;4908481;29;20122;-78
2023/01/01 15:22:49;;;;;;;12.02;4.90;;;17.60;91.10;;;;;;4908571;29;20099;-78
2023/01/01 15:25:17;;;;;;;11.00;4.30;;;17.30;91.10;;;;;;4908555;29;20040;-78
2023/01/01 15:28:03;;;;;;;9.60;4.63;;;17.00;93.10;;;;;;4909291;29;20024;-80
2023/01/01 15:30:34;;;;;;;9.82;4.93;;;16.70;92.70;;;;;;4909322;29;20114;-80
2023/01/01 15:33:08;;;;;;;8.57;5.05;;;16.50;94.60;;;;;;4907330;29;20128;-77
2023/01/01 15:35:36;;;;;;;13.57;7.40;;;16.30;93.70;;;;;;4923788;29;20188;-78
2023/01/01 15:38:11;;;;;;;16.15;7.28;;;16.10;93.90;;;;;;4909478;29;20032;-78
2023/01/01 15:40:39;;;;;;;14.00;7.63;;;15.80;94.30;;;;;;4908382;29;20045;-79
2023/01/01 15:43:17;;;;;;;12.13;7.30;;;15.60;94.60;;;;;;4909424;29;20036;-78
2023/01/01 15:45:54;;;;;;;14.50;8.77;;;15.40;94.80;;;;;;4908246;29;20318;-78
2023/01/01 15:48:32;;;;;;;19.05;11.13;;;15.20;95.30;;;;;;4908960;29;20028;-78
2023/01/01 15:51:25;;;;;;;13.00;8.40;;;15.00;95.70;;;;;;4923292;29;20370;-79
2023/01/01 15:54:00;;;;;;;19.83;10.07;;;14.90;96.00;;;;;;4886878;29;20093;-78
2023/01/01 15:56:29;;;;;;;17.45;10.00;;;14.80;97.10;;;;;;4889903;29;20025;-78
2023/01/01 15:59:13;;;;;;;16.08;9.18;;;14.70;98.10;;;;;;4889409;29;20041;-77
2023/01/01 16:01:39;;;;;;;14.85;8.15;;;14.50;97.60;;;;;;4921661;29;20068;-78
2023/01/01 16:04:16;;;;;;;14.52;7.80;;;14.50;98.30;;;;;;4908360;29;20103;-78
2023/01/01 16:06:50;;;;;;;13.27;7.03;;;14.40;98.50;;;;;;4908298;29;20045;-77
2023/01/01 16:09:18;;;;;;;14.50;7.57;;;14.20;98.50;;;;;;4907191;29;20111;-78
2023/01/01 16:11:44;;;;;;;17.50;10.53;;;14.20;99.90;;;;;;4907989;29;20042;-77
2023/01/01 16:14:10;;;;;;;20.33;11.55;;;14.20;99.30;;;;;;4907501;29;20040;-79
2023/01/01 16:16:38;;;;;;;21.38;10.88;;;14.10;99.90;;;;;;4907690;29;20032;-78
2023/01/01 16:19:09;;;;;;;20.30;10.75;;;14.00;99.80;;;;;;4908620;29;20024;-78
2023/01/01 16:21:35;;;;;;;15.88;10.30;;;13.90;99.90;;;;;;4908488;29;20040;-78
2023/01/01 16:24:00;;;;;;;18.20;10.68;;;13.90;99.90;;;;;;4908383;29;20079;-78
2023/01/01 16:26:26;;;;;;;17.58;9.25;;;13.80;99.90;;;;;;4907121;29;20029;-78
2023/01/01 16:28:52;;;;;;;19.75;11.40;;;13.70;99.90;;;;;;4907825;29;20275;-78
2023/01/01 16:31:23;;;;;;;18.35;9.52;;;13.60;99.90;;;;;;4907728;29;20044;-78
2023/01/01 16:33:54;;;;;;;18.55;9.02;;;13.60;99.90;;;;;;4907892;29;20096;-78
2023/01/01 16:36:21;;;;;;;15.75;8.95;;;13.40;99.90;;;;;;4907885;29;20025;-78
2023/01/01 16:38:46;;;;;;;15.00;8.07;;;13.30;99.90;;;;;;4906398;29;20068;-78
2023/01/01 16:41:15;;;;;;;17.95;8.85;;;13.20;99.90;;;;;;4907631;29;20124;-79
2023/01/01 16:43:42;;;;;;;18.63;8.70;;;13.10;99.90;;;;;;4906619;29;20087;-79
2023/01/01 16:46:13;;;;;;;12.18;7.55;;;13.00;99.90;;;;;;4908240;29;20051;-82
2023/01/01 16:48:40;;;;;;;14.40;7.47;;;13.00;99.90;;;;;;4903187;29;20060;-79
2023/01/01 16:51:14;;;;;;;16.30;7.38;;;12.80;99.90;;;;;;4887931;29;20048;-81
2023/01/01 16:53:39;;;;;;;13.68;7.78;;;12.70;99.90;;;;;;4899752;29;20067;-84
2023/01/01 16:56:07;;;;;;;12.68;7.50;;;12.70;99.90;;;;;;4922533;29;20092;-81
2023/01/01 16:58:34;;;;;;;14.15;6.97;;;12.60;99.90;;;;;;4907888;29;20032;-80
2023/01/01 17:01:00;;;;;;;13.02;6.97;;;12.60;99.90;;;;;;4907195;29;20028;-82
2023/01/01 17:03:26;;;;;;;13.50;7.28;;;12.50;99.90;;;;;;4907258;29;20052;-82
2023/01/01 17:05:52;;;;;;;14.38;7.57;;;12.40;99.90;;;;;;4905599;29;20032;-81
2023/01/01 17:08:18;;;;;;;13.10;7.60;;;12.40;99.90;;;;;;4907761;29;20043;-81
2023/01/01 17:10:43;;;;;;;12.45;7.07;;;12.30;99.90;;;;;;4905598;29;20041;-80
2023/01/01 17:13:09;;;;;;;17.42;8.02;;;12.20;99.90;;;;;;4907265;29;20013;-82
2023/01/01 17:15:35;;;;;;;13.73;7.38;;;12.20;99.90;;;;;;4907469;29;20032;-78
2023/01/01 17:18:01;;;;;;;14.85;7.63;;;12.10;99.90;;;;;;4906099;29;20104;-78
2023/01/01 17:20:26;;;;;;;15.02;8.57;;;12.10;99.90;;;;;;4907371;29;20040;-81
2023/01/01 17:22:52;;;;;;;18.35;9.85;;;12.00;99.90;;;;;;4905818;29;20373;-78
2023/01/01 17:25:18;;;;;;;13.63;8.43;;;11.90;99.90;;;;;;4907243;29;20032;-80
2023/01/01 17:27:44;;;;;;;22.70;9.00;;;11.90;99.90;;;;;;4906424;29;20051;-78
2023/01/01 17:30:11;;;;;;;18.73;8.65;;;11.80;99.90;;;;;;4906240;29;20398;-79
2023/01/01 17:32:38;;;;;;;17.35;9.82;;;11.70;99.90;;;;;;4905273;29;20024;-81
2023/01/01 17:35:04;;;;;;;17.23;9.52;;;11.70;99.90;;;;;;4906950;29;20079;-81
2023/01/01 17:37:31;;;;;;;15.65;8.93;;;11.60;99.90;;;;;;4906452;29;20036;-78
2023/01/01 17:39:58;;;;;;;16.40;10.05;;;11.60;99.90;;;;;;4889836;29;20025;-82
2023/01/01 17:42:23;;;;;;;21.35;10.32;;;11.60;99.90;;;;;;4906747;29;20028;-81
2023/01/01 17:44:49;;;;;;;16.17;10.05;;;11.60;99.90;;;;;;4905394;29;20145;-82
2023/01/01 17:47:15;;;;;;;16.13;8.48;;;11.60;99.90;;;;;;4890069;29;20073;-79
2023/01/01 17:49:42;;;;;;;16.38;8.82;;;11.60;99.90;;;;;;4906073;29;20032;-81
2023/01/01 17:52:08;;;;;;;12.95;8.00;;;11.50;99.90;;;;;;4905644;29;20024;-80
2023/01/01 17:54:34;;;;;;;19.52;9.55;;;11.50;99.90;;;;;;4906687;29;20024;-80
2023/01/01 17:57:02;;;;;;;16.65;9.70;;;11.50;99.90;;;;;;4904902;29;20088;-80
2023/01/01 17:59:29;;;;;;;20.85;11.40;;;11.40;99.90;;;;;;4906869;29;20068;-82
2023/01/01 18:01:55;;;;;;;19.40;12.20;;;11.30;99.90;;;;;;4906192;29;20120;-83
2023/01/01 18:04:21;;;;;;;26.38;13.88;;;11.20;99.90;;;;;;4906704;29;20090;-83
2023/01/01 18:06:47;;;;;;;23.45;13.63;;;11.20;99.90;;;;;;4906876;29;20033;-81
2023/01/01 18:09:13;;;;;;;20.95;13.55;;;11.20;99.90;;;;;;4907704;29;20067;-78
2023/01/01 18:11:40;;;;;;;22.80;13.23;;;11.10;99.90;;;;;;4906481;29;20279;-79
2023/01/01 18:14:06;;;;;;;21.58;12.80;;;11.10;99.90;;;;;;4906625;29;20325;-81
2023/01/01 18:16:34;;;;;;;17.88;11.05;;;11.10;99.90;;;;;;4906805;29;20048;-80
2023/01/01 18:19:02;;;;;;;20.55;10.88;;;11.10;99.90;;;;;;4906276;29;20091;-79
2023/01/01 18:21:28;;;;;;;;;;;11.00;99.90;;;;;;4907352;29;20361;-78
2023/01/01 18:23:56;;;;;;;16.20;8.82;;;10.90;99.90;;;;;;4906361;29;19911;-78
2023/01/01 18:26:24;;;;;;;17.88;10.60;;;10.90;99.90;;;;;;4906561;29;20025;-78
2023/01/01 18:28:58;;;;;;;18.85;10.45;;;10.90;99.90;;;;;;4905115;29;20303;-82
2023/01/01 18:31:25;;;;;;;18.17;9.82;;;10.80;99.90;;;;;;4902885;29;20033;-77
2023/01/01 18:33:52;;;;;;;19.17;10.40;;;10.80;99.90;;;;;;4886971;29;20085;-81
2023/01/01 18:36:20;;;;;;;18.88;10.40;;;10.70;99.90;;;;;;4887579;29;20029;-80
2023/01/01 18:38:54;;;;;;;18.20;10.15;;;10.70;99.90;;;;;;4885901;29;20188;-78
2023/01/01 18:41:31;;;;;;;20.42;10.82;;;10.70;99.90;;;;;;4898068;29;20128;-80
2023/01/01 18:43:58;;;;;;;17.00;9.88;;;10.70;99.90;;;;;;4906446;29;20028;-79
2023/01/01 18:46:25;;;;;;;16.05;9.07;;;10.80;99.90;;;;;;4905604;29;20040;-78
2023/01/01 18:48:51;;;;;;;17.80;9.73;;;10.70;99.90;;;;;;4904813;29;20028;-78
2023/01/01 18:51:24;;;;;;;16.88;10.10;;;10.70;99.90;;;;;;4895241;29;20318;-80
2023/01/01 18:53:57;;;;;;;17.55;10.63;;;10.70;99.90;;;;;;4898260;29;20088;-78
2023/01/01 18:56:23;;;;;;;18.77;10.93;;;10.60;99.90;;;;;;4906502;29;20025;-78
2023/01/01 18:58:50;;;;;;;20.90;10.95;;;10.50;99.90;;;;;;4906540;29;20049;-79
2023/01/01 19:01:21;;;;;;;20.05;11.07;;;10.50;99.90;;;;;;4905998;29;20068;-79
2023/01/01 19:03:55;;;;;;;18.17;10.18;;;10.40;99.90;;;;;;4905842;29;20184;-79
2023/01/01 19:06:28;;;;;;;17.52;10.32;;;10.40;99.90;;;;;;4906194;29;20044;-80
2023/01/01 19:09:11;;;;;;;20.65;10.18;;;10.40;99.90;;;;;;4903691;29;20025;-78